East Point, Louisiana
Current Conditions -  °F | °C
As of 6:58 PM on Tuesday 21 Oct 2014 (Local Time) from KBAD Reporting Station
Clear Clear  
Wind Chill: 70°   Ceiling: Unl
Heat Index: 70°   Visibility: 10mi
Dew Point: 62°   Wind: 2mph
Humidity: 74%   Direction: 50°NE
Pressure: 30.02"   Gusts: NA
Location:  32.17°N, 93.43°W
Report Text: KBAD 212358Z AUTO 05002KT 10SM CLR 21/17 A3002 RMK AO2 SLP168 T02130166 10279 20213 55002
Loading
Personal Weather Stations






























Interactive Weather Map
Tropical Storm Tracking
New forecast layout! Learn more

10-Day Weather Forecast

Advertisements
Track Severe Weather on mobile